createdAt,value
2018-02-21T00:00:28.017Z,1.65
2018-02-21T00:01:28.054Z,1.61
2018-02-21T00:02:28.034Z,1.61
2018-02-21T00:03:28.066Z,1.61
2018-02-21T00:04:28.094Z,1.61
2018-02-21T00:05:28.077Z,1.37
2018-02-21T00:06:28.051Z,1.4
2018-02-21T00:07:28.064Z,1.36
2018-02-21T00:08:28.053Z,1.36
2018-02-21T00:09:28.057Z,1.37
2018-02-21T00:10:28.079Z,1.36
2018-02-21T00:11:28.535Z,1.38
2018-02-21T00:12:28.077Z,1.37
2018-02-21T00:13:28.157Z,1.43
2018-02-21T00:14:28.083Z,1.4
2018-02-21T00:15:28.078Z,1.44
2018-02-21T00:16:28.103Z,1.43
2018-02-21T00:17:28.072Z,1.43
2018-02-21T00:18:28.079Z,1.43
2018-02-21T00:19:28.086Z,1.41
2018-02-21T00:20:28.097Z,1.41
2018-02-21T00:21:28.115Z,1.4
2018-02-21T00:22:28.093Z,1.38
2018-02-21T00:23:28.112Z,1.36
2018-02-21T00:24:28.110Z,1.36
2018-02-21T00:25:28.119Z,1.34
2018-02-21T00:26:28.118Z,1.34
2018-02-21T00:27:28.119Z,1.34
2018-02-21T00:28:28.149Z,1.34
2018-02-21T00:29:28.272Z,1.24
2018-02-21T00:30:28.114Z,1.23
2018-02-21T00:31:28.270Z,1.22
2018-02-21T00:32:28.277Z,1.2
2018-02-21T00:33:28.283Z,1.15
2018-02-21T00:34:28.128Z,1.03
2018-02-21T00:35:28.294Z,1.06
2018-02-21T00:36:28.135Z,1.04
2018-02-21T00:37:28.259Z,1.06
2018-02-21T00:38:28.133Z,1.06
2018-02-21T00:39:28.153Z,1.04
2018-02-21T00:40:28.305Z,1.09
2018-02-21T00:41:28.134Z,1.11
2018-02-21T00:42:28.329Z,1.07
2018-02-21T00:43:28.155Z,1.07
2018-02-21T00:44:28.370Z,1.07
2018-02-21T00:45:28.159Z,1.07
2018-02-21T00:46:28.165Z,1.06
2018-02-21T00:47:28.171Z,1.03
2018-02-21T00:48:28.160Z,0.96
2018-02-21T00:49:28.185Z,0.98
2018-02-21T00:50:28.170Z,0.99
2018-02-21T00:51:28.178Z,0.96
2018-02-21T00:52:28.207Z,0.96
2018-02-21T00:53:28.509Z,0.91
2018-02-21T00:54:28.210Z,0.92
2018-02-21T00:55:28.200Z,0.93
2018-02-21T00:56:28.215Z,0.95
2018-02-21T00:57:28.215Z,0.86
2018-02-21T00:58:28.226Z,0.82
2018-02-21T00:59:28.199Z,0.85
2018-02-21T01:00:28.216Z,0.79
2018-02-21T01:01:28.215Z,0.79
2018-02-21T01:02:28.217Z,0.79
2018-02-21T01:03:28.681Z,0.79
2018-02-21T01:04:28.228Z,0.79
2018-02-21T01:05:28.231Z,0.79
2018-02-21T01:06:28.217Z,0.81
2018-02-21T01:07:28.229Z,0.82
2018-02-21T01:08:28.284Z,0.81
2018-02-21T01:09:28.229Z,0.78
2018-02-21T01:10:28.281Z,0.78
2018-02-21T01:11:28.232Z,0.74
2018-02-21T01:12:28.239Z,0.75
2018-02-21T01:13:28.259Z,0.74
2018-02-21T01:14:28.248Z,0.75
2018-02-21T01:15:28.254Z,0.69
2018-02-21T01:16:28.286Z,0.68
2018-02-21T01:17:28.284Z,0.67
2018-02-21T01:18:28.266Z,0.6
2018-02-21T01:19:28.283Z,0.5
2018-02-21T01:20:28.584Z,0.47
2018-02-21T01:21:28.281Z,0.47
2018-02-21T01:22:28.286Z,0.5
2018-02-21T01:23:28.310Z,0.47
2018-02-21T01:24:28.298Z,0.4
2018-02-21T01:25:28.323Z,0.41
2018-02-21T01:26:28.315Z,0.46
2018-02-21T01:27:28.291Z,0.47
2018-02-21T01:28:28.302Z,0.5
2018-02-21T01:29:28.311Z,0.53
2018-02-21T01:30:28.336Z,0.53
2018-02-21T01:31:28.309Z,0.55
2018-02-21T01:32:28.477Z,0.54
2018-02-21T01:33:28.337Z,0.57
2018-02-21T01:34:28.320Z,0.57
2018-02-21T01:35:28.332Z,0.58
2018-02-21T01:36:28.339Z,0.51
2018-02-21T01:37:28.340Z,0.38
2018-02-21T01:38:28.706Z,0.37
2018-02-21T01:39:28.344Z,0.41
2018-02-21T01:40:28.505Z,0.46
2018-02-21T01:41:28.526Z,0.44
2018-02-21T01:42:28.387Z,0.47
2018-02-21T01:43:28.379Z,0.46
2018-02-21T01:44:28.404Z,0.44
2018-02-21T01:45:28.347Z,0.4
2018-02-21T01:46:28.527Z,0.4
2018-02-21T01:47:28.527Z,0.4
2018-02-21T01:48:28.445Z,0.36
2018-02-21T01:49:28.520Z,0.29
2018-02-21T01:50:28.375Z,0.27
2018-02-21T01:51:28.370Z,0.34
2018-02-21T01:52:28.596Z,0.4
2018-02-21T01:53:28.563Z,0.32
2018-02-21T01:54:28.392Z,0.27
2018-02-21T01:55:28.379Z,0.22
2018-02-21T01:56:28.385Z,0.25
2018-02-21T01:57:28.396Z,0.32
2018-02-21T01:58:28.396Z,0.3
2018-02-21T01:59:28.379Z,0.33
2018-02-21T02:00:28.400Z,0.32
2018-02-21T02:01:28.399Z,0.34
2018-02-21T02:02:28.391Z,0.37
2018-02-21T02:03:28.418Z,0.34
2018-02-21T02:04:28.401Z,0.34
2018-02-21T02:05:28.397Z,0.34
2018-02-21T02:06:28.409Z,0.36
2018-02-21T02:07:28.398Z,0.33
2018-02-21T02:08:28.468Z,0.34
2018-02-21T02:09:28.413Z,0.34
2018-02-21T02:10:28.432Z,0.36
2018-02-21T02:11:28.439Z,0.36
2018-02-21T02:12:28.436Z,0.34
2018-02-21T02:13:28.586Z,0.33
2018-02-21T02:14:28.444Z,0.26
2018-02-21T02:15:28.466Z,0.29
2018-02-21T02:16:28.452Z,0.3
2018-02-21T02:17:28.482Z,0.34
2018-02-21T02:18:28.459Z,0.33
2018-02-21T02:19:28.473Z,0.36
2018-02-21T02:20:28.489Z,0.38
2018-02-21T02:21:28.472Z,0.36
2018-02-21T02:22:28.472Z,0.37
2018-02-21T02:23:28.469Z,0.32
2018-02-21T02:24:28.472Z,0.18
2018-02-21T02:25:28.497Z,0.15
2018-02-21T02:26:28.474Z,0.09
2018-02-21T02:27:28.496Z,0.13
2018-02-21T02:28:28.488Z,0.16
2018-02-21T02:29:28.493Z,0.2
2018-02-21T02:30:28.507Z,0.22
2018-02-21T02:31:28.512Z,0.23
2018-02-21T02:32:28.500Z,0.23
2018-02-21T02:33:28.526Z,0.27
2018-02-21T02:34:28.499Z,0.27
2018-02-21T02:35:28.531Z,0.2
2018-02-21T02:36:28.552Z,0.25
2018-02-21T02:37:28.508Z,0.15
2018-02-21T02:38:28.519Z,0.03
2018-02-21T02:39:28.512Z,-0.02
2018-02-21T02:40:28.531Z,0.03
2018-02-21T02:41:28.538Z,0.1
2018-02-21T02:42:28.579Z,0.05
2018-02-21T02:43:28.538Z,0.03
2018-02-21T02:44:28.545Z,-0.02
2018-02-21T02:45:28.567Z,-0.09
2018-02-21T02:46:28.557Z,-0.05
2018-02-21T02:47:28.566Z,-0.01
2018-02-21T02:48:28.559Z,0.02
2018-02-21T02:49:28.560Z,0.06
2018-02-21T02:50:28.564Z,0.1
2018-02-21T02:51:28.565Z,0.06
2018-02-21T02:52:28.728Z,0.06
2018-02-21T02:53:28.715Z,0.12
2018-02-21T02:54:28.715Z,0.09
2018-02-21T02:55:28.706Z,0.16
2018-02-21T02:56:28.745Z,0.16
2018-02-21T02:57:28.717Z,0.2
2018-02-21T02:58:28.746Z,0.23
2018-02-21T02:59:28.749Z,0.22
2018-02-21T03:00:28.747Z,0.27
2018-02-21T03:01:28.781Z,0.3
2018-02-21T03:02:28.756Z,0.3
2018-02-21T03:03:28.796Z,0.32
2018-02-21T03:04:28.767Z,0.33
2018-02-21T03:05:28.749Z,0.33
2018-02-21T03:06:28.785Z,0.34
2018-02-21T03:07:28.804Z,0.36
2018-02-21T03:08:28.760Z,0.34
2018-02-21T03:09:28.764Z,0.37
2018-02-21T03:10:28.619Z,0.37
2018-02-21T03:11:28.620Z,0.4
2018-02-21T03:12:28.647Z,0.4
2018-02-21T03:13:28.645Z,0.43
2018-02-21T03:14:28.663Z,0.43
2018-02-21T03:15:28.653Z,0.41
2018-02-21T03:16:28.624Z,0.44
2018-02-21T03:17:28.660Z,0.44
2018-02-21T03:18:28.644Z,0.46
2018-02-21T03:19:28.653Z,0.43
2018-02-21T03:20:28.653Z,0.43
2018-02-21T03:21:28.654Z,0.46
2018-02-21T03:22:28.682Z,0.43
2018-02-21T03:23:28.655Z,0.43
2018-02-21T03:24:28.665Z,0.44
2018-02-21T03:25:28.664Z,0.48
2018-02-21T03:26:28.669Z,0.44
2018-02-21T03:27:28.704Z,0.47
2018-02-21T03:28:28.686Z,0.48
2018-02-21T03:29:28.684Z,0.51
2018-02-21T03:30:28.718Z,0.55
2018-02-21T03:31:28.709Z,0.53
2018-02-21T03:32:28.723Z,0.53
2018-02-21T03:33:28.712Z,0.55
2018-02-21T03:34:28.709Z,0.55
2018-02-21T03:35:28.711Z,0.55
2018-02-21T03:36:28.866Z,0.55
2018-02-21T03:37:28.726Z,0.58
2018-02-21T03:38:28.721Z,0.6
2018-02-21T03:39:28.875Z,0.6
2018-02-21T03:40:28.720Z,0.63
2018-02-21T03:41:28.729Z,0.6
2018-02-21T03:42:28.754Z,0.65
2018-02-21T03:43:28.747Z,0.63
2018-02-21T03:44:28.749Z,0.63
2018-02-21T03:45:28.746Z,0.63
2018-02-21T03:46:28.744Z,0.6
2018-02-21T03:47:28.781Z,0.61
2018-02-21T03:48:28.752Z,0.61
2018-02-21T03:49:28.763Z,0.63
2018-02-21T03:50:28.796Z,0.6
2018-02-21T03:51:28.772Z,0.6
2018-02-21T03:52:28.775Z,0.55
2018-02-21T03:53:28.784Z,0.57
2018-02-21T03:54:28.783Z,0.58
2018-02-21T03:55:28.827Z,0.6
2018-02-21T03:56:28.779Z,0.64
2018-02-21T03:57:28.789Z,0.64
2018-02-21T03:58:28.786Z,0.67
2018-02-21T03:59:28.992Z,0.68
2018-02-21T04:00:28.796Z,0.67
2018-02-21T04:01:28.804Z,0.67
2018-02-21T04:02:28.810Z,0.68
2018-02-21T04:03:28.974Z,0.71
2018-02-21T04:04:28.982Z,0.69
2018-02-21T04:05:28.980Z,0.68
2018-02-21T04:06:28.990Z,0.71
2018-02-21T04:07:29.000Z,0.71
2018-02-21T04:08:29.001Z,0.71
2018-02-21T04:09:29.011Z,0.71
2018-02-21T04:10:29.000Z,0.71
2018-02-21T04:11:28.998Z,0.72
2018-02-21T04:12:29.006Z,0.69
2018-02-21T04:13:29.007Z,0.69
2018-02-21T04:14:29.011Z,0.69
2018-02-21T04:15:28.865Z,0.68
2018-02-21T04:16:29.010Z,0.69
2018-02-21T04:17:29.012Z,0.69
2018-02-21T04:18:28.852Z,0.69
2018-02-21T04:19:29.067Z,0.69
2018-02-21T04:20:30.912Z,0.69
2018-02-21T04:21:28.884Z,0.69
2018-02-21T04:22:28.897Z,0.68
2018-02-21T04:23:28.889Z,0.67
2018-02-21T04:24:28.941Z,0.67
2018-02-21T04:25:29.091Z,0.71
2018-02-21T04:26:29.058Z,0.69
2018-02-21T04:27:29.079Z,0.71
2018-02-21T04:28:29.053Z,0.71
2018-02-21T04:29:28.904Z,0.72
2018-02-21T04:30:29.085Z,0.69
2018-02-21T04:31:28.900Z,0.71
2018-02-21T04:32:29.076Z,0.69
2018-02-21T04:33:29.065Z,0.71
2018-02-21T04:34:29.075Z,0.69
2018-02-21T04:35:29.115Z,0.68
2018-02-21T04:36:29.092Z,0.69
2018-02-21T04:37:29.098Z,0.67
2018-02-21T04:38:28.933Z,0.71
2018-02-21T04:39:28.932Z,0.71
2018-02-21T04:40:28.943Z,0.68
2018-02-21T04:41:28.940Z,0.67
2018-02-21T04:42:28.932Z,0.65
2018-02-21T04:43:28.946Z,0.63
2018-02-21T04:44:28.938Z,0.57
2018-02-21T04:45:28.974Z,0.58
2018-02-21T04:46:28.998Z,0.55
2018-02-21T04:47:29.012Z,0.54
2018-02-21T04:48:28.968Z,0.55
2018-02-21T04:49:28.961Z,0.55
2018-02-21T04:50:28.978Z,0.51
2018-02-21T04:51:28.953Z,0.51
2018-02-21T04:52:28.956Z,0.3
2018-02-21T04:53:28.963Z,0.26
2018-02-21T04:54:28.986Z,0.1
2018-02-21T04:55:28.996Z,0.08
2018-02-21T04:56:28.984Z,0.05
2018-02-21T04:57:28.975Z,0.05
2018-02-21T04:58:28.982Z,-0.01
2018-02-21T04:59:28.987Z,-0.07
2018-02-21T05:00:29.158Z,-0.01
2018-02-21T05:01:28.985Z,0.02
2018-02-21T05:02:28.993Z,0.08
2018-02-21T05:03:28.996Z,-0.01
2018-02-21T05:04:29.003Z,-0.04
2018-02-21T05:05:29.033Z,-0.01
2018-02-21T05:06:29.017Z,0.01
2018-02-21T05:07:29.024Z,0.06
2018-02-21T05:08:29.032Z,0.06
2018-02-21T05:09:29.181Z,0.08
2018-02-21T05:10:29.057Z,0.06
2018-02-21T05:11:29.035Z,0.08
2018-02-21T05:12:29.061Z,0.12
2018-02-21T05:13:29.057Z,0.13
2018-02-21T05:14:29.083Z,0.1
2018-02-21T05:15:29.102Z,0.09
2018-02-21T05:16:29.229Z,0.12
2018-02-21T05:17:29.230Z,0.12
2018-02-21T05:18:29.074Z,0.1
2018-02-21T05:19:29.230Z,0.13
2018-02-21T05:20:29.250Z,0.06
2018-02-21T05:21:29.242Z,0.06
2018-02-21T05:22:29.100Z,0.08
2018-02-21T05:23:29.247Z,0.1
2018-02-21T05:24:29.246Z,0.18
2018-02-21T05:25:29.287Z,0.2
2018-02-21T05:26:29.255Z,0.18
2018-02-21T05:27:29.265Z,0.16
2018-02-21T05:28:29.270Z,0.13
2018-02-21T05:29:29.123Z,0.13
2018-02-21T05:30:29.330Z,0.16
2018-02-21T05:31:29.270Z,0.12
2018-02-21T05:32:29.301Z,0.09
2018-02-21T05:33:29.122Z,0.09
2018-02-21T05:34:29.125Z,0.09
2018-02-21T05:35:29.427Z,0.08
2018-02-21T05:36:29.142Z,0.09
2018-02-21T05:37:29.155Z,0.15
2018-02-21T05:38:29.148Z,0.12
2018-02-21T05:39:29.141Z,0.15
2018-02-21T05:40:29.174Z,0.15
2018-02-21T05:41:29.155Z,0.16
2018-02-21T05:42:29.168Z,0.16
2018-02-21T05:43:29.213Z,0.16
2018-02-21T05:44:29.179Z,0.15
2018-02-21T05:45:29.206Z,0.13
2018-02-21T05:46:29.188Z,0.15
2018-02-21T05:47:29.174Z,0.15
2018-02-21T05:48:29.184Z,0.12
2018-02-21T05:49:29.202Z,0.12
2018-02-21T05:50:29.202Z,0.08
2018-02-21T05:51:29.213Z,0.1
2018-02-21T05:52:29.189Z,0.09
2018-02-21T05:53:29.207Z,0.08
2018-02-21T05:54:29.190Z,0.1
2018-02-21T05:55:29.568Z,0.09
2018-02-21T05:56:29.254Z,0.06
2018-02-21T05:57:29.218Z,0.06
2018-02-21T05:58:29.233Z,0.05
2018-02-21T05:59:29.223Z,0.01
2018-02-21T06:00:29.257Z,-0.01
2018-02-21T06:01:29.229Z,-0.04
2018-02-21T06:02:29.393Z,-0.08
2018-02-21T06:03:29.227Z,-0.05
2018-02-21T06:04:29.230Z,-0.05
2018-02-21T06:05:29.226Z,-0.04
2018-02-21T06:06:29.242Z,-0.08
2018-02-21T06:07:29.296Z,-0.04
2018-02-21T06:08:29.239Z,-0.02
2018-02-21T06:09:29.244Z,-0.09
2018-02-21T06:10:29.423Z,-0.11
2018-02-21T06:11:29.261Z,-0.11
2018-02-21T06:12:29.399Z,-0.09
2018-02-21T06:13:29.259Z,-0.09
2018-02-21T06:14:29.312Z,-0.12
2018-02-21T06:15:29.729Z,-0.11
2018-02-21T06:16:29.263Z,-0.14
2018-02-21T06:17:29.272Z,-0.14
2018-02-21T06:18:29.436Z,-0.17
2018-02-21T06:19:29.280Z,-0.18
2018-02-21T06:20:29.287Z,-0.17
2018-02-21T06:21:29.326Z,-0.17
2018-02-21T06:22:29.284Z,-0.18
2018-02-21T06:23:29.316Z,-0.18
2018-02-21T06:24:29.299Z,-0.17
2018-02-21T06:25:29.308Z,-0.19
2018-02-21T06:26:29.300Z,-0.18
2018-02-21T06:27:29.468Z,-0.21
2018-02-21T06:28:29.465Z,-0.19
2018-02-21T06:29:29.471Z,-0.19
2018-02-21T06:30:29.476Z,-0.18
2018-02-21T06:31:29.509Z,-0.18
2018-02-21T06:32:29.478Z,-0.21
2018-02-21T06:33:29.480Z,-0.21
2018-02-21T06:34:29.502Z,-0.21
2018-02-21T06:35:29.511Z,-0.19
2018-02-21T06:36:29.551Z,-0.21
2018-02-21T06:37:29.502Z,-0.18
2018-02-21T06:38:29.626Z,-0.19
2018-02-21T06:39:29.513Z,-0.21
2018-02-21T06:40:29.583Z,-0.21
2018-02-21T06:41:29.519Z,-0.22
2018-02-21T06:42:29.520Z,-0.19
2018-02-21T06:43:29.545Z,-0.22
2018-02-21T06:44:29.530Z,-0.19
2018-02-21T06:45:29.374Z,-0.23
2018-02-21T06:46:29.385Z,-0.25
2018-02-21T06:47:29.417Z,-0.26
2018-02-21T06:48:29.379Z,-0.25
2018-02-21T06:49:29.555Z,-0.28
2018-02-21T06:50:29.532Z,-0.26
2018-02-21T06:51:29.540Z,-0.29
2018-02-21T06:52:29.570Z,-0.29
2018-02-21T06:53:29.558Z,-0.3
2018-02-21T06:54:29.584Z,-0.32
2018-02-21T06:55:29.565Z,-0.33
2018-02-21T06:56:29.588Z,-0.35
2018-02-21T06:57:29.594Z,-0.35
2018-02-21T06:58:29.578Z,-0.35
2018-02-21T06:59:29.427Z,-0.33
2018-02-21T07:00:29.576Z,-0.32
2018-02-21T07:01:29.580Z,-0.32
2018-02-21T07:02:29.462Z,-0.32
2018-02-21T07:03:29.423Z,-0.3
2018-02-21T07:04:29.463Z,-0.29
2018-02-21T07:05:29.438Z,-0.29
2018-02-21T07:06:29.446Z,-0.29
2018-02-21T07:07:29.474Z,-0.28
2018-02-21T07:08:29.465Z,-0.3
2018-02-21T07:09:29.458Z,-0.3
2018-02-21T07:10:29.460Z,-0.21
2018-02-21T07:11:29.630Z,-0.15
2018-02-21T07:12:29.493Z,-0.15
2018-02-21T07:13:29.465Z,-0.15
2018-02-21T07:14:29.471Z,-0.15
2018-02-21T07:15:29.731Z,-0.19
2018-02-21T07:16:29.489Z,-0.28
2018-02-21T07:17:29.498Z,-0.28
2018-02-21T07:18:29.612Z,-0.35
2018-02-21T07:19:29.501Z,-0.3
2018-02-21T07:20:29.506Z,-0.3
2018-02-21T07:21:29.576Z,-0.28
2018-02-21T07:22:29.510Z,-0.25
2018-02-21T07:23:29.523Z,-0.23
2018-02-21T07:24:29.506Z,-0.22
2018-02-21T07:25:29.505Z,-0.21
2018-02-21T07:26:29.504Z,-0.19
2018-02-21T07:27:29.519Z,-0.22
2018-02-21T07:28:29.570Z,-0.21
2018-02-21T07:29:29.509Z,-0.18
2018-02-21T07:30:29.531Z,-0.21
2018-02-21T07:31:29.513Z,-0.23
2018-02-21T07:32:29.519Z,-0.29
2018-02-21T07:33:29.518Z,-0.29
2018-02-21T07:34:29.520Z,-0.3
2018-02-21T07:35:29.532Z,-0.28
2018-02-21T07:36:29.520Z,-0.23
2018-02-21T07:37:29.533Z,-0.22
2018-02-21T07:38:29.692Z,-0.22
2018-02-21T07:39:29.711Z,-0.18
2018-02-21T07:40:29.681Z,-0.17
2018-02-21T07:41:29.687Z,-0.15
2018-02-21T07:42:29.685Z,-0.12
2018-02-21T07:43:29.708Z,-0.14
2018-02-21T07:44:29.732Z,-0.18
2018-02-21T07:45:29.710Z,-0.17
2018-02-21T07:46:29.700Z,-0.17
2018-02-21T07:47:29.707Z,-0.14
2018-02-21T07:48:29.715Z,-0.11
2018-02-21T07:49:29.749Z,-0.15
2018-02-21T07:50:29.713Z,-0.22
2018-02-21T07:51:29.777Z,-0.22
2018-02-21T07:52:29.724Z,-0.22
2018-02-21T07:53:29.728Z,-0.21
2018-02-21T07:54:29.717Z,-0.19
2018-02-21T07:55:29.749Z,-0.18
2018-02-21T07:56:30.617Z,-0.12
2018-02-21T07:57:29.731Z,-0.09
2018-02-21T07:58:29.720Z,-0.08
2018-02-21T07:59:30.059Z,-0.07
2018-02-21T08:00:29.607Z,-0.07
2018-02-21T08:01:29.732Z,-0.01
2018-02-21T08:02:29.734Z,0.01
2018-02-21T08:03:29.757Z,0.03
2018-02-21T08:04:29.745Z,0.06
2018-02-21T08:05:29.767Z,0.08
2018-02-21T08:06:29.789Z,0.08
2018-02-21T08:07:29.754Z,0.09
2018-02-21T08:08:29.765Z,0.12
2018-02-21T08:09:29.766Z,0.16
2018-02-21T08:10:29.739Z,0.18
2018-02-21T08:11:29.790Z,0.18
2018-02-21T08:12:29.788Z,0.15
2018-02-21T08:13:29.796Z,0.18
2018-02-21T08:14:29.642Z,0.22
2018-02-21T08:15:29.761Z,0.23
2018-02-21T08:16:29.638Z,0.27
2018-02-21T08:17:29.656Z,0.32
2018-02-21T08:18:29.653Z,0.32
2018-02-21T08:19:29.654Z,0.34
2018-02-21T08:20:29.957Z,0.34
2018-02-21T08:21:29.676Z,0.38
2018-02-21T08:22:29.661Z,0.41
2018-02-21T08:23:29.669Z,0.41
2018-02-21T08:24:29.707Z,0.41
2018-02-21T08:25:29.703Z,0.43
2018-02-21T08:26:29.707Z,0.46
2018-02-21T08:27:29.696Z,0.5
2018-02-21T08:28:29.852Z,0.54
2018-02-21T08:29:29.690Z,0.58
2018-02-21T08:30:29.726Z,0.55
2018-02-21T08:31:29.709Z,0.51
2018-02-21T08:32:29.709Z,0.55
2018-02-21T08:33:29.717Z,0.58
2018-02-21T08:34:29.714Z,0.58
2018-02-21T08:35:29.731Z,0.63
2018-02-21T08:36:29.769Z,0.67
2018-02-21T08:37:29.735Z,0.68
2018-02-21T08:38:29.731Z,0.68
2018-02-21T08:39:29.754Z,0.69
2018-02-21T08:40:29.749Z,0.76
2018-02-21T08:41:29.895Z,0.81
2018-02-21T08:42:29.767Z,0.74
2018-02-21T08:43:29.744Z,0.74
2018-02-21T08:44:29.925Z,0.79
2018-02-21T08:45:29.750Z,0.85
2018-02-21T08:46:29.757Z,0.85
2018-02-21T08:47:29.739Z,0.83
2018-02-21T08:48:29.761Z,0.86
2018-02-21T08:49:29.751Z,0.85
2018-02-21T08:50:29.911Z,0.88
2018-02-21T08:51:29.918Z,0.92
2018-02-21T08:52:29.933Z,0.96
2018-02-21T08:53:29.918Z,0.98
2018-02-21T08:54:29.913Z,1.03
2018-02-21T08:55:29.914Z,1.02
2018-02-21T08:56:29.918Z,1.02
2018-02-21T08:57:29.945Z,1
2018-02-21T08:58:29.923Z,1.03
2018-02-21T08:59:29.771Z,1.06
2018-02-21T09:00:29.932Z,1.03
2018-02-21T09:01:29.941Z,1.03
2018-02-21T09:02:29.942Z,1.07
2018-02-21T09:03:29.949Z,1.09
2018-02-21T09:04:29.956Z,1.1
2018-02-21T09:05:29.961Z,1.1
2018-02-21T09:06:30.043Z,1.13
2018-02-21T09:07:29.963Z,1.16
2018-02-21T09:08:29.974Z,1.16
2018-02-21T09:09:29.967Z,1.2
2018-02-21T09:10:30.089Z,1.22
2018-02-21T09:11:37.005Z,1.24
2018-02-21T09:12:29.983Z,1.27
2018-02-21T09:13:30.119Z,1.3
2018-02-21T09:14:30.004Z,1.26
2018-02-21T09:15:30.005Z,1.22
2018-02-21T09:16:30.125Z,1.28
2018-02-21T09:17:30.042Z,1.34
2018-02-21T09:18:30.042Z,1.37
2018-02-21T09:19:30.017Z,1.37
2018-02-21T09:20:29.875Z,1.37
2018-02-21T09:21:30.029Z,1.38
2018-02-21T09:22:29.871Z,1.37
2018-02-21T09:23:30.059Z,1.37
2018-02-21T09:24:30.042Z,1.37
2018-02-21T09:25:29.894Z,1.37
2018-02-21T09:26:29.876Z,1.47
2018-02-21T09:27:29.890Z,1.45
2018-02-21T09:28:29.909Z,1.48
2018-02-21T09:29:29.893Z,1.48
2018-02-21T09:30:29.899Z,1.5
2018-02-21T09:31:29.893Z,1.5
2018-02-21T09:32:29.915Z,1.58
2018-02-21T09:33:29.936Z,1.58
2018-02-21T09:34:29.914Z,1.62
2018-02-21T09:35:29.904Z,1.64
2018-02-21T09:36:29.910Z,1.51
2018-02-21T09:37:29.920Z,1.44
2018-02-21T09:38:29.976Z,1.45
2018-02-21T09:39:30.013Z,1.53
2018-02-21T09:40:29.976Z,1.58
2018-02-21T09:41:29.932Z,1.57
2018-02-21T09:42:29.933Z,1.59
2018-02-21T09:43:29.955Z,1.66
2018-02-21T09:44:29.928Z,1.75
2018-02-21T09:45:30.130Z,1.68
2018-02-21T09:46:29.947Z,1.69
2018-02-21T09:47:29.940Z,1.68
2018-02-21T09:48:30.132Z,1.73
2018-02-21T09:49:29.964Z,1.73
2018-02-21T09:50:29.948Z,1.65
2018-02-21T09:51:29.979Z,1.61
2018-02-21T09:52:29.959Z,1.59
2018-02-21T09:53:29.964Z,1.69
2018-02-21T09:54:29.997Z,1.65
2018-02-21T09:55:29.960Z,1.64
2018-02-21T09:56:30.000Z,1.62
2018-02-21T09:57:29.972Z,1.68
2018-02-21T09:58:29.996Z,1.78
2018-02-21T09:59:29.989Z,1.87
2018-02-21T10:00:29.968Z,1.89
2018-02-21T10:01:30.135Z,1.96
2018-02-21T10:02:30.142Z,1.85
2018-02-21T10:03:30.139Z,1.93
2018-02-21T10:04:30.144Z,1.97
2018-02-21T10:05:30.032Z,2.04
2018-02-21T10:06:30.217Z,1.99
2018-02-21T10:07:30.007Z,1.99
2018-02-21T10:08:30.024Z,2.06
2018-02-21T10:09:30.003Z,2.1
2018-02-21T10:10:30.013Z,2.1
2018-02-21T10:11:30.186Z,2.16
2018-02-21T10:12:30.177Z,2.24
2018-02-21T10:13:30.184Z,2.28
2018-02-21T10:14:30.054Z,2.33
2018-02-21T10:15:30.032Z,2.33
2018-02-21T10:16:30.058Z,2.34
2018-02-21T10:17:30.237Z,2.33
2018-02-21T10:18:30.211Z,2.4
2018-02-21T10:19:30.069Z,2.41
2018-02-21T10:20:30.055Z,2.45
2018-02-21T10:21:30.059Z,2.37
2018-02-21T10:22:30.076Z,2.31
2018-02-21T10:23:30.058Z,2.3
2018-02-21T10:24:30.081Z,2.3
2018-02-21T10:25:30.076Z,2.28
2018-02-21T10:26:30.080Z,2.36
2018-02-21T10:27:30.082Z,2.47
2018-02-21T10:28:30.079Z,2.41
2018-02-21T10:29:30.092Z,2.47
2018-02-21T10:30:30.116Z,2.45
2018-02-21T10:31:30.082Z,2.44
2018-02-21T10:32:30.201Z,2.48
2018-02-21T10:33:30.093Z,2.52
2018-02-21T10:34:30.104Z,2.66
2018-02-21T10:35:30.141Z,2.59
2018-02-21T10:36:30.115Z,2.58
2018-02-21T10:37:30.115Z,2.51
2018-02-21T10:38:30.220Z,2.61
2018-02-21T10:39:30.124Z,2.64
2018-02-21T10:40:30.153Z,2.69
2018-02-21T10:41:30.128Z,2.82
2018-02-21T10:42:30.135Z,2.86
2018-02-21T10:43:30.137Z,2.9
2018-02-21T10:44:30.145Z,2.92
2018-02-21T10:45:30.180Z,2.87
2018-02-21T10:46:30.153Z,2.79
2018-02-21T10:47:30.159Z,2.76
2018-02-21T10:48:30.178Z,2.82
2018-02-21T10:49:30.173Z,2.96
2018-02-21T10:50:30.186Z,2.89
2018-02-21T10:51:30.174Z,2.84
2018-02-21T10:52:30.170Z,2.97
2018-02-21T10:53:30.184Z,3.03
2018-02-21T10:54:30.186Z,3.06
2018-02-21T10:55:30.204Z,3.04
2018-02-21T10:56:30.191Z,3.06
2018-02-21T10:57:30.343Z,3.14
2018-02-21T10:58:30.364Z,3.21
2018-02-21T10:59:30.347Z,3.28
2018-02-21T11:00:30.224Z,3.38
2018-02-21T11:01:30.343Z,3.42
2018-02-21T11:02:30.191Z,3.49
2018-02-21T11:03:30.186Z,3.52
2018-02-21T11:04:30.191Z,3.51
2018-02-21T11:05:30.204Z,3.54
2018-02-21T11:06:30.213Z,3.59
2018-02-21T11:07:30.200Z,3.56
2018-02-21T11:08:30.219Z,3.62
2018-02-21T11:09:30.215Z,3.52
2018-02-21T11:10:30.528Z,3.52
2018-02-21T11:11:30.207Z,3.58
2018-02-21T11:12:30.212Z,3.62
2018-02-21T11:13:30.374Z,3.63
2018-02-21T11:14:30.384Z,3.48
2018-02-21T11:15:30.404Z,3.56
2018-02-21T11:16:30.378Z,3.62
2018-02-21T11:17:30.372Z,3.63
2018-02-21T11:18:30.390Z,3.63
2018-02-21T11:19:30.386Z,3.69
2018-02-21T11:20:30.424Z,3.59
2018-02-21T11:21:30.428Z,3.52
2018-02-21T11:22:30.236Z,3.59
2018-02-21T11:23:30.468Z,3.66
2018-02-21T11:24:30.397Z,3.66
2018-02-21T11:25:30.407Z,3.61
2018-02-21T11:26:30.426Z,3.61
2018-02-21T11:27:30.267Z,3.66
2018-02-21T11:28:30.258Z,3.72
2018-02-21T11:29:30.482Z,3.76
2018-02-21T11:30:30.280Z,3.82
2018-02-21T11:31:30.296Z,3.83
2018-02-21T11:32:30.431Z,3.84
2018-02-21T11:33:30.435Z,3.86
2018-02-21T11:34:30.444Z,3.84
2018-02-21T11:35:30.285Z,3.8
2018-02-21T11:36:30.324Z,3.93
2018-02-21T11:37:30.299Z,4.05
2018-02-21T11:38:30.310Z,4.12
2018-02-21T11:39:30.478Z,4.18
2018-02-21T11:40:30.478Z,4.24
2018-02-21T11:41:30.640Z,4.24
2018-02-21T11:42:30.315Z,4.19
2018-02-21T11:43:30.321Z,4.21
2018-02-21T11:44:30.500Z,4.26
2018-02-21T11:45:30.337Z,4.33
2018-02-21T11:46:30.347Z,4.29
2018-02-21T11:47:30.330Z,4.26
2018-02-21T11:48:30.331Z,4.38
2018-02-21T11:49:30.341Z,4.45
2018-02-21T11:50:30.447Z,4.46
2018-02-21T11:51:30.360Z,4.52
2018-02-21T11:52:30.352Z,4.56
2018-02-21T11:53:30.339Z,4.46
2018-02-21T11:54:30.355Z,4.42
2018-02-21T11:55:30.352Z,4.4
2018-02-21T11:56:30.363Z,4.48
2018-02-21T11:57:30.536Z,4.65
2018-02-21T11:58:30.349Z,4.67
2018-02-21T11:59:30.356Z,4.62
2018-02-21T12:00:30.519Z,4.55
2018-02-21T12:01:30.409Z,4.56
2018-02-21T12:02:30.529Z,4.62
2018-02-21T12:03:30.368Z,4.6
2018-02-21T12:04:30.376Z,4.6
2018-02-21T12:05:30.387Z,4.62
2018-02-21T12:06:30.405Z,4.7
2018-02-21T12:07:30.556Z,4.74
2018-02-21T12:08:30.404Z,4.84
2018-02-21T12:09:30.387Z,4.84
2018-02-21T12:10:30.561Z,4.94
2018-02-21T12:11:30.417Z,4.94
2018-02-21T12:12:30.399Z,4.88
2018-02-21T12:13:30.402Z,4.86
2018-02-21T12:14:30.413Z,4.86
2018-02-21T12:15:30.572Z,4.95
2018-02-21T12:16:30.444Z,5.02
2018-02-21T12:17:30.425Z,4.98
2018-02-21T12:18:30.446Z,4.98
2018-02-21T12:19:30.428Z,5.05
2018-02-21T12:20:30.580Z,5.14
2018-02-21T12:21:30.457Z,5.11
2018-02-21T12:22:30.433Z,5.16
2018-02-21T12:23:30.593Z,5.23
2018-02-21T12:24:30.446Z,5.18
2018-02-21T12:25:30.595Z,5.08
2018-02-21T12:26:30.626Z,5.16
2018-02-21T12:27:30.653Z,5.21
2018-02-21T12:28:30.615Z,5.15
2018-02-21T12:29:30.907Z,5.18
2018-02-21T12:30:30.630Z,5.12
2018-02-21T12:31:30.499Z,5.11
2018-02-21T12:32:30.671Z,5.16
2018-02-21T12:33:30.479Z,5.18
2018-02-21T12:34:30.496Z,5.19
2018-02-21T12:35:30.508Z,5.29
2018-02-21T12:36:30.648Z,5.32
2018-02-21T12:37:30.512Z,5.4
2018-02-21T12:38:30.489Z,5.23
2018-02-21T12:39:30.493Z,5.29
2018-02-21T12:40:30.494Z,5.22
2018-02-21T12:41:30.493Z,5.15
2018-02-21T12:42:30.526Z,5.1
2018-02-21T12:43:30.674Z,5.19
2018-02-21T12:44:30.492Z,5.32
2018-02-21T12:45:30.502Z,5.39
2018-02-21T12:46:30.498Z,5.29
2018-02-21T12:47:30.522Z,5.38
2018-02-21T12:48:30.504Z,5.46
2018-02-21T12:49:31.580Z,5.59
2018-02-21T12:50:30.532Z,5.6
2018-02-21T12:51:30.510Z,5.6
2018-02-21T12:52:30.539Z,5.54
2018-02-21T12:53:30.516Z,5.46
2018-02-21T12:54:30.523Z,5.47
2018-02-21T12:55:30.701Z,5.54
2018-02-21T12:56:30.530Z,5.53
2018-02-21T12:57:30.553Z,5.5
2018-02-21T12:58:30.529Z,5.45
2018-02-21T12:59:30.692Z,5.47
2018-02-21T13:00:30.541Z,5.53
2018-02-21T13:01:30.543Z,5.56
2018-02-21T13:02:30.573Z,5.62
2018-02-21T13:03:30.677Z,5.64
2018-02-21T13:04:30.554Z,5.75
2018-02-21T13:05:30.579Z,5.73
2018-02-21T13:06:30.579Z,5.77
2018-02-21T13:07:30.600Z,5.62
2018-02-21T13:08:30.566Z,5.39
2018-02-21T13:09:30.567Z,5.56
2018-02-21T13:10:30.589Z,5.69
2018-02-21T13:11:30.569Z,5.8
2018-02-21T13:12:30.752Z,5.85
2018-02-21T13:13:30.586Z,5.69
2018-02-21T13:14:30.599Z,5.7
2018-02-21T13:15:30.600Z,5.81
2018-02-21T13:16:30.598Z,5.62